Beaver Island, Michigan
Current Conditions -  °F | °C
As of 11:15 AM on Thursday 23 Oct 2014 (Local Time) from KSJX Reporting Station
Overcast Overcast  
Wind Chill: 45°   Ceiling: 1100
Heat Index: 47°   Visibility: 10mi
Dew Point: 43°   Wind: 5mph
Humidity: 86%   Direction: 180°S
Pressure: 30.19"   Gusts: NA
Location:  45.64°N, 85.52°W
Report Text: KSJX 231515Z AUTO 18004KT 10SM OVC011 09/06 A3019 RMK AO2 T00850062
Loading
Personal Weather Stations






























Interactive Weather Map
Tropical Storm Tracking
New forecast layout! Learn more

10-Day Weather Forecast

Advertisements
Track Severe Weather on mobile